sensor_id;sensor_type;location;lat;lon;timestamp;P1;durP1;ratioP1;P2;durP2;ratioP2
53714;SDS011;39608;55.630;37.864;2023-09-18T00:02:19;20.48;;;12.85;;
53714;SDS011;39608;55.630;37.864;2023-09-18T00:07:21;28.88;;;16.65;;
53714;SDS011;39608;55.630;37.864;2023-09-18T00:12:23;41.22;;;21.25;;
53714;SDS011;39608;55.630;37.864;2023-09-18T00:17:28;34.78;;;19.42;;
53714;SDS011;39608;55.630;37.864;2023-09-18T00:22:30;40.38;;;23.65;;
53714;SDS011;39608;55.630;37.864;2023-09-18T00:27:32;35.90;;;22.95;;
53714;SDS011;39608;55.630;37.864;2023-09-18T00:32:39;39.65;;;20.35;;
53714;SDS011;39608;55.630;37.864;2023-09-18T00:37:41;36.17;;;17.30;;
53714;SDS011;39608;55.630;37.864;2023-09-18T00:42:43;25.10;;;13.73;;
53714;SDS011;39608;55.630;37.864;2023-09-18T00:47:47;24.25;;;12.55;;
53714;SDS011;39608;55.630;37.864;2023-09-18T00:52:49;20.70;;;10.57;;
53714;SDS011;39608;55.630;37.864;2023-09-18T00:57:54;14.05;;;7.75;;
53714;SDS011;39608;55.630;37.864;2023-09-18T01:02:58;17.98;;;7.82;;
53714;SDS011;39608;55.630;37.864;2023-09-18T01:08:02;13.50;;;7.18;;
53714;SDS011;39608;55.630;37.864;2023-09-18T01:13:06;15.57;;;6.85;;
53714;SDS011;39608;55.630;37.864;2023-09-18T01:18:15;12.93;;;7.18;;
53714;SDS011;39608;55.630;37.864;2023-09-18T01:23:20;16.90;;;7.93;;
53714;SDS011;39608;55.630;37.864;2023-09-18T01:28:22;13.13;;;7.57;;
53714;SDS011;39608;55.630;37.864;2023-09-18T01:33:27;11.10;;;7.20;;
53714;SDS011;39608;55.630;37.864;2023-09-18T01:38:32;11.80;;;6.50;;
53714;SDS011;39608;55.630;37.864;2023-09-18T01:43:35;12.45;;;7.07;;
53714;SDS011;39608;55.630;37.864;2023-09-18T01:48:37;14.85;;;7.20;;
53714;SDS011;39608;55.630;37.864;2023-09-18T01:53:40;13.23;;;6.32;;
53714;SDS011;39608;55.630;37.864;2023-09-18T01:58:43;11.80;;;6.55;;
53714;SDS011;39608;55.630;37.864;2023-09-18T02:03:45;10.30;;;6.07;;
53714;SDS011;39608;55.630;37.864;2023-09-18T02:08:49;19.17;;;6.43;;
53714;SDS011;39608;55.630;37.864;2023-09-18T02:13:53;11.20;;;5.13;;
53714;SDS011;39608;55.630;37.864;2023-09-18T02:18:56;11.27;;;5.93;;
53714;SDS011;39608;55.630;37.864;2023-09-18T02:24:00;13.75;;;6.35;;
53714;SDS011;39608;55.630;37.864;2023-09-18T02:29:03;13.77;;;7.07;;
53714;SDS011;39608;55.630;37.864;2023-09-18T02:34:06;11.63;;;5.30;;
53714;SDS011;39608;55.630;37.864;2023-09-18T02:39:10;10.65;;;5.88;;
53714;SDS011;39608;55.630;37.864;2023-09-18T02:44:12;11.98;;;5.85;;
53714;SDS011;39608;55.630;37.864;2023-09-18T02:49:15;14.60;;;5.93;;
53714;SDS011;39608;55.630;37.864;2023-09-18T02:54:18;8.88;;;5.30;;
53714;SDS011;39608;55.630;37.864;2023-09-18T02:59:20;19.83;;;6.13;;
53714;SDS011;39608;55.630;37.864;2023-09-18T03:04:22;16.23;;;5.63;;
53714;SDS011;39608;55.630;37.864;2023-09-18T03:09:28;10.00;;;5.47;;
53714;SDS011;39608;55.630;37.864;2023-09-18T03:14:31;9.63;;;4.93;;
53714;SDS011;39608;55.630;37.864;2023-09-18T03:19:33;11.27;;;4.90;;
53714;SDS011;39608;55.630;37.864;2023-09-18T03:24:36;7.35;;;5.18;;
53714;SDS011;39608;55.630;37.864;2023-09-18T03:29:38;11.55;;;4.90;;
53714;SDS011;39608;55.630;37.864;2023-09-18T03:34:42;15.73;;;6.25;;
53714;SDS011;39608;55.630;37.864;2023-09-18T03:39:45;7.40;;;4.72;;
53714;SDS011;39608;55.630;37.864;2023-09-18T03:44:48;8.90;;;4.80;;
53714;SDS011;39608;55.630;37.864;2023-09-18T03:49:50;8.43;;;5.15;;
53714;SDS011;39608;55.630;37.864;2023-09-18T03:54:56;11.52;;;5.82;;
53714;SDS011;39608;55.630;37.864;2023-09-18T03:59:58;10.20;;;4.72;;
53714;SDS011;39608;55.630;37.864;2023-09-18T04:05:00;8.55;;;5.25;;
53714;SDS011;39608;55.630;37.864;2023-09-18T04:10:07;6.05;;;4.28;;
53714;SDS011;39608;55.630;37.864;2023-09-18T04:15:11;7.20;;;4.47;;
53714;SDS011;39608;55.630;37.864;2023-09-18T04:20:14;9.68;;;4.88;;
53714;SDS011;39608;55.630;37.864;2023-09-18T04:25:18;7.40;;;4.65;;
53714;SDS011;39608;55.630;37.864;2023-09-18T04:30:22;8.20;;;5.28;;
53714;SDS011;39608;55.630;37.864;2023-09-18T04:35:24;7.93;;;4.88;;
53714;SDS011;39608;55.630;37.864;2023-09-18T04:40:28;10.93;;;4.85;;
53714;SDS011;39608;55.630;37.864;2023-09-18T04:45:32;8.27;;;5.13;;
53714;SDS011;39608;55.630;37.864;2023-09-18T04:50:35;7.32;;;4.35;;
53714;SDS011;39608;55.630;37.864;2023-09-18T04:55:39;10.73;;;5.07;;
53714;SDS011;39608;55.630;37.864;2023-09-18T05:00:41;10.10;;;5.07;;
53714;SDS011;39608;55.630;37.864;2023-09-18T05:05:45;9.50;;;4.88;;
53714;SDS011;39608;55.630;37.864;2023-09-18T05:10:50;9.32;;;5.20;;
53714;SDS011;39608;55.630;37.864;2023-09-18T05:15:52;12.80;;;5.43;;
53714;SDS011;39608;55.630;37.864;2023-09-18T05:20:54;7.93;;;4.82;;
53714;SDS011;39608;55.630;37.864;2023-09-18T05:25:58;9.25;;;5.55;;
53714;SDS011;39608;55.630;37.864;2023-09-18T05:31:03;17.27;;;6.00;;
53714;SDS011;39608;55.630;37.864;2023-09-18T05:36:05;14.60;;;7.53;;
53714;SDS011;39608;55.630;37.864;2023-09-18T05:41:10;24.92;;;7.70;;
53714;SDS011;39608;55.630;37.864;2023-09-18T05:46:12;14.82;;;7.18;;
53714;SDS011;39608;55.630;37.864;2023-09-18T05:51:17;13.07;;;6.13;;
53714;SDS011;39608;55.630;37.864;2023-09-18T05:56:20;7.55;;;4.68;;
53714;SDS011;39608;55.630;37.864;2023-09-18T06:01:24;6.68;;;4.50;;
53714;SDS011;39608;55.630;37.864;2023-09-18T06:06:26;7.97;;;4.60;;
53714;SDS011;39608;55.630;37.864;2023-09-18T06:11:31;7.53;;;4.10;;
53714;SDS011;39608;55.630;37.864;2023-09-18T06:16:33;8.23;;;4.40;;
53714;SDS011;39608;55.630;37.864;2023-09-18T06:21:35;12.52;;;4.15;;
53714;SDS011;39608;55.630;37.864;2023-09-18T06:26:42;11.20;;;4.78;;
53714;SDS011;39608;55.630;37.864;2023-09-18T06:31:44;8.30;;;3.75;;
53714;SDS011;39608;55.630;37.864;2023-09-18T06:36:46;8.13;;;4.00;;
53714;SDS011;39608;55.630;37.864;2023-09-18T06:41:49;8.30;;;4.45;;
53714;SDS011;39608;55.630;37.864;2023-09-18T06:46:51;6.70;;;4.13;;
53714;SDS011;39608;55.630;37.864;2023-09-18T06:51:56;6.07;;;4.10;;
53714;SDS011;39608;55.630;37.864;2023-09-18T06:57:00;13.38;;;4.47;;
53714;SDS011;39608;55.630;37.864;2023-09-18T07:02:03;12.00;;;5.82;;
53714;SDS011;39608;55.630;37.864;2023-09-18T07:07:08;8.50;;;5.18;;
53714;SDS011;39608;55.630;37.864;2023-09-18T07:12:11;11.30;;;5.50;;
53714;SDS011;39608;55.630;37.864;2023-09-18T07:17:13;12.02;;;6.07;;
53714;SDS011;39608;55.630;37.864;2023-09-18T07:22:15;9.60;;;6.05;;
53714;SDS011;39608;55.630;37.864;2023-09-18T07:27:19;12.88;;;7.10;;
53714;SDS011;39608;55.630;37.864;2023-09-18T07:32:24;10.90;;;6.17;;
53714;SDS011;39608;55.630;37.864;2023-09-18T07:37:28;9.43;;;5.75;;
53714;SDS011;39608;55.630;37.864;2023-09-18T07:42:32;16.45;;;5.63;;
53714;SDS011;39608;55.630;37.864;2023-09-18T07:47:34;15.93;;;5.55;;
53714;SDS011;39608;55.630;37.864;2023-09-18T07:52:37;9.43;;;5.50;;
53714;SDS011;39608;55.630;37.864;2023-09-18T07:57:40;12.95;;;5.75;;
53714;SDS011;39608;55.630;37.864;2023-09-18T08:02:44;10.60;;;5.45;;
53714;SDS011;39608;55.630;37.864;2023-09-18T08:07:49;17.45;;;6.30;;
53714;SDS011;39608;55.630;37.864;2023-09-18T08:12:53;26.67;;;6.93;;
53714;SDS011;39608;55.630;37.864;2023-09-18T08:17:55;13.38;;;6.07;;
53714;SDS011;39608;55.630;37.864;2023-09-18T08:22:59;13.73;;;5.65;;
53714;SDS011;39608;55.630;37.864;2023-09-18T08:28:03;18.40;;;6.43;;
53714;SDS011;39608;55.630;37.864;2023-09-18T08:33:06;10.68;;;6.22;;
53714;SDS011;39608;55.630;37.864;2023-09-18T08:38:08;12.00;;;5.63;;
53714;SDS011;39608;55.630;37.864;2023-09-18T08:43:19;22.33;;;6.40;;
53714;SDS011;39608;55.630;37.864;2023-09-18T08:48:23;18.35;;;6.03;;
53714;SDS011;39608;55.630;37.864;2023-09-18T08:53:28;15.50;;;6.75;;
53714;SDS011;39608;55.630;37.864;2023-09-18T08:58:33;25.13;;;7.75;;
53714;SDS011;39608;55.630;37.864;2023-09-18T09:03:44;17.85;;;6.65;;
53714;SDS011;39608;55.630;37.864;2023-09-18T09:08:46;22.15;;;7.03;;
53714;SDS011;39608;55.630;37.864;2023-09-18T09:13:50;23.20;;;6.38;;
53714;SDS011;39608;55.630;37.864;2023-09-18T09:19:11;13.65;;;5.95;;
53714;SDS011;39608;55.630;37.864;2023-09-18T09:24:14;8.48;;;6.13;;
53714;SDS011;39608;55.630;37.864;2023-09-18T09:29:19;9.95;;;5.70;;
53714;SDS011;39608;55.630;37.864;2023-09-18T09:34:26;12.77;;;5.68;;
53714;SDS011;39608;55.630;37.864;2023-09-18T09:39:30;17.45;;;6.07;;
53714;SDS011;39608;55.630;37.864;2023-09-18T09:44:34;6.55;;;4.93;;
53714;SDS011;39608;55.630;37.864;2023-09-18T09:49:44;13.40;;;5.43;;
53714;SDS011;39608;55.630;37.864;2023-09-18T09:54:47;14.07;;;5.85;;
53714;SDS011;39608;55.630;37.864;2023-09-18T09:59:50;11.88;;;6.05;;
53714;SDS011;39608;55.630;37.864;2023-09-18T10:04:54;12.43;;;6.30;;
53714;SDS011;39608;55.630;37.864;2023-09-18T10:09:59;16.50;;;6.00;;
53714;SDS011;39608;55.630;37.864;2023-09-18T10:15:03;6.95;;;4.13;;
53714;SDS011;39608;55.630;37.864;2023-09-18T10:20:11;8.05;;;4.30;;
53714;SDS011;39608;55.630;37.864;2023-09-18T10:25:21;6.68;;;4.40;;
53714;SDS011;39608;55.630;37.864;2023-09-18T10:30:27;18.45;;;5.88;;
53714;SDS011;39608;55.630;37.864;2023-09-18T10:35:31;12.05;;;6.18;;
53714;SDS011;39608;55.630;37.864;2023-09-18T10:40:33;12.05;;;6.25;;
53714;SDS011;39608;55.630;37.864;2023-09-18T10:45:38;21.58;;;6.30;;
53714;SDS011;39608;55.630;37.864;2023-09-18T10:50:42;14.30;;;5.60;;
53714;SDS011;39608;55.630;37.864;2023-09-18T10:55:45;8.38;;;5.22;;
53714;SDS011;39608;55.630;37.864;2023-09-18T11:01:00;14.27;;;4.85;;
53714;SDS011;39608;55.630;37.864;2023-09-18T11:06:04;17.20;;;5.13;;
53714;SDS011;39608;55.630;37.864;2023-09-18T11:11:07;15.27;;;6.03;;
53714;SDS011;39608;55.630;37.864;2023-09-18T11:16:36;12.00;;;5.47;;
53714;SDS011;39608;55.630;37.864;2023-09-18T11:21:40;13.98;;;5.25;;
53714;SDS011;39608;55.630;37.864;2023-09-18T11:26:49;6.15;;;4.05;;
53714;SDS011;39608;55.630;37.864;2023-09-18T11:31:54;15.07;;;4.57;;
53714;SDS011;39608;55.630;37.864;2023-09-18T11:36:58;6.85;;;4.78;;
53714;SDS011;39608;55.630;37.864;2023-09-18T11:42:06;13.60;;;5.68;;
53714;SDS011;39608;55.630;37.864;2023-09-18T11:47:12;12.93;;;6.28;;
53714;SDS011;39608;55.630;37.864;2023-09-18T11:52:20;9.40;;;4.53;;
53714;SDS011;39608;55.630;37.864;2023-09-18T11:57:29;12.02;;;5.00;;
53714;SDS011;39608;55.630;37.864;2023-09-18T12:02:39;16.52;;;6.03;;
53714;SDS011;39608;55.630;37.864;2023-09-18T12:07:47;9.32;;;6.57;;
53714;SDS011;39608;55.630;37.864;2023-09-18T12:12:51;15.00;;;6.30;;
53714;SDS011;39608;55.630;37.864;2023-09-18T12:17:55;13.35;;;6.10;;
53714;SDS011;39608;55.630;37.864;2023-09-18T12:28:03;14.73;;;6.20;;
53714;SDS011;39608;55.630;37.864;2023-09-18T12:33:09;8.23;;;5.28;;
53714;SDS011;39608;55.630;37.864;2023-09-18T12:38:16;13.73;;;5.75;;
53714;SDS011;39608;55.630;37.864;2023-09-18T12:43:20;15.80;;;6.30;;
53714;SDS011;39608;55.630;37.864;2023-09-18T12:48:26;12.30;;;4.97;;
53714;SDS011;39608;55.630;37.864;2023-09-18T12:53:29;10.45;;;4.72;;
53714;SDS011;39608;55.630;37.864;2023-09-18T12:58:31;16.75;;;5.18;;
53714;SDS011;39608;55.630;37.864;2023-09-18T13:03:40;6.85;;;4.20;;
53714;SDS011;39608;55.630;37.864;2023-09-18T13:08:43;7.85;;;3.80;;
53714;SDS011;39608;55.630;37.864;2023-09-18T13:13:46;7.70;;;4.03;;
53714;SDS011;39608;55.630;37.864;2023-09-18T13:19:04;10.00;;;4.25;;
53714;SDS011;39608;55.630;37.864;2023-09-18T13:24:08;7.25;;;4.30;;
53714;SDS011;39608;55.630;37.864;2023-09-18T13:29:26;15.93;;;4.70;;
53714;SDS011;39608;55.630;37.864;2023-09-18T13:34:34;9.30;;;4.50;;
53714;SDS011;39608;55.630;37.864;2023-09-18T13:39:37;9.40;;;4.82;;
53714;SDS011;39608;55.630;37.864;2023-09-18T13:44:39;10.18;;;4.65;;
53714;SDS011;39608;55.630;37.864;2023-09-18T13:49:44;6.68;;;4.03;;
53714;SDS011;39608;55.630;37.864;2023-09-18T13:54:47;6.03;;;4.53;;
53714;SDS011;39608;55.630;37.864;2023-09-18T13:59:51;10.68;;;4.93;;
53714;SDS011;39608;55.630;37.864;2023-09-18T14:04:55;8.15;;;4.45;;
53714;SDS011;39608;55.630;37.864;2023-09-18T14:09:57;8.68;;;4.50;;
53714;SDS011;39608;55.630;37.864;2023-09-18T14:14:59;12.85;;;4.85;;
53714;SDS011;39608;55.630;37.864;2023-09-18T14:20:03;9.82;;;4.32;;
53714;SDS011;39608;55.630;37.864;2023-09-18T14:25:07;7.95;;;4.85;;
53714;SDS011;39608;55.630;37.864;2023-09-18T14:30:12;11.90;;;5.15;;
53714;SDS011;39608;55.630;37.864;2023-09-18T14:35:16;6.68;;;4.88;;
53714;SDS011;39608;55.630;37.864;2023-09-18T14:40:18;22.70;;;5.15;;
53714;SDS011;39608;55.630;37.864;2023-09-18T14:45:21;9.10;;;4.45;;
53714;SDS011;39608;55.630;37.864;2023-09-18T14:50:24;7.95;;;4.57;;
53714;SDS011;39608;55.630;37.864;2023-09-18T14:55:26;4.90;;;3.67;;
53714;SDS011;39608;55.630;37.864;2023-09-18T15:00:28;8.10;;;4.20;;
53714;SDS011;39608;55.630;37.864;2023-09-18T15:05:32;11.30;;;6.13;;
53714;SDS011;39608;55.630;37.864;2023-09-18T15:10:35;7.30;;;4.75;;
53714;SDS011;39608;55.630;37.864;2023-09-18T15:15:37;13.20;;;5.32;;
53714;SDS011;39608;55.630;37.864;2023-09-18T15:20:41;7.28;;;3.53;;
53714;SDS011;39608;55.630;37.864;2023-09-18T15:25:43;19.55;;;4.40;;
53714;SDS011;39608;55.630;37.864;2023-09-18T15:30:46;17.85;;;6.25;;
53714;SDS011;39608;55.630;37.864;2023-09-18T15:35:50;8.65;;;3.95;;
53714;SDS011;39608;55.630;37.864;2023-09-18T15:40:52;20.33;;;4.28;;
53714;SDS011;39608;55.630;37.864;2023-09-18T15:45:55;9.85;;;3.78;;
53714;SDS011;39608;55.630;37.864;2023-09-18T15:50:59;16.20;;;4.68;;
53714;SDS011;39608;55.630;37.864;2023-09-18T15:56:01;14.02;;;3.47;;
53714;SDS011;39608;55.630;37.864;2023-09-18T16:01:03;10.13;;;3.35;;
53714;SDS011;39608;55.630;37.864;2023-09-18T16:06:09;15.45;;;3.90;;
53714;SDS011;39608;55.630;37.864;2023-09-18T16:11:11;9.73;;;3.80;;
53714;SDS011;39608;55.630;37.864;2023-09-18T16:16:15;10.15;;;4.20;;
53714;SDS011;39608;55.630;37.864;2023-09-18T16:21:19;17.92;;;5.78;;
53714;SDS011;39608;55.630;37.864;2023-09-18T16:26:21;10.55;;;4.85;;
53714;SDS011;39608;55.630;37.864;2023-09-18T16:31:23;7.10;;;4.38;;
53714;SDS011;39608;55.630;37.864;2023-09-18T16:36:27;11.55;;;5.88;;
53714;SDS011;39608;55.630;37.864;2023-09-18T16:41:29;11.25;;;4.80;;
53714;SDS011;39608;55.630;37.864;2023-09-18T16:46:31;9.60;;;4.13;;
53714;SDS011;39608;55.630;37.864;2023-09-18T16:51:35;9.15;;;3.90;;
53714;SDS011;39608;55.630;37.864;2023-09-18T16:56:37;7.93;;;4.22;;
53714;SDS011;39608;55.630;37.864;2023-09-18T17:01:39;21.35;;;4.38;;
53714;SDS011;39608;55.630;37.864;2023-09-18T17:06:43;8.40;;;4.25;;
53714;SDS011;39608;55.630;37.864;2023-09-18T17:11:45;10.70;;;4.18;;
53714;SDS011;39608;55.630;37.864;2023-09-18T17:16:47;10.85;;;5.18;;
53714;SDS011;39608;55.630;37.864;2023-09-18T17:21:51;7.90;;;4.55;;
53714;SDS011;39608;55.630;37.864;2023-09-18T17:26:53;16.35;;;5.70;;
53714;SDS011;39608;55.630;37.864;2023-09-18T17:31:55;15.10;;;6.07;;
53714;SDS011;39608;55.630;37.864;2023-09-18T17:36:59;10.57;;;5.45;;
53714;SDS011;39608;55.630;37.864;2023-09-18T17:42:02;11.48;;;5.28;;
53714;SDS011;39608;55.630;37.864;2023-09-18T17:47:04;11.65;;;5.80;;
53714;SDS011;39608;55.630;37.864;2023-09-18T17:52:07;15.60;;;5.63;;
53714;SDS011;39608;55.630;37.864;2023-09-18T17:57:11;9.00;;;5.15;;
53714;SDS011;39608;55.630;37.864;2023-09-18T18:02:13;8.27;;;5.57;;
53714;SDS011;39608;55.630;37.864;2023-09-18T18:07:17;12.57;;;5.50;;
53714;SDS011;39608;55.630;37.864;2023-09-18T18:12:21;10.30;;;5.80;;
53714;SDS011;39608;55.630;37.864;2023-09-18T18:17:23;9.00;;;5.65;;
53714;SDS011;39608;55.630;37.864;2023-09-18T18:22:26;17.02;;;6.45;;
53714;SDS011;39608;55.630;37.864;2023-09-18T18:27:29;19.95;;;7.53;;
53714;SDS011;39608;55.630;37.864;2023-09-18T18:32:34;13.13;;;5.88;;
53714;SDS011;39608;55.630;37.864;2023-09-18T18:37:40;12.95;;;6.65;;
53714;SDS011;39608;55.630;37.864;2023-09-18T18:42:42;14.30;;;6.40;;
53714;SDS011;39608;55.630;37.864;2023-09-18T18:47:49;17.27;;;6.78;;
53714;SDS011;39608;55.630;37.864;2023-09-18T18:52:54;17.60;;;6.60;;
53714;SDS011;39608;55.630;37.864;2023-09-18T18:57:56;14.45;;;7.40;;
53714;SDS011;39608;55.630;37.864;2023-09-18T19:02:59;11.05;;;6.25;;
53714;SDS011;39608;55.630;37.864;2023-09-18T19:08:06;12.60;;;6.38;;
53714;SDS011;39608;55.630;37.864;2023-09-18T19:13:08;16.73;;;6.75;;
53714;SDS011;39608;55.630;37.864;2023-09-18T19:18:12;14.50;;;6.45;;
53714;SDS011;39608;55.630;37.864;2023-09-18T19:23:21;16.17;;;6.68;;
53714;SDS011;39608;55.630;37.864;2023-09-18T19:28:23;9.85;;;5.55;;
53714;SDS011;39608;55.630;37.864;2023-09-18T19:33:26;9.52;;;6.53;;
53714;SDS011;39608;55.630;37.864;2023-09-18T19:38:30;9.63;;;6.30;;
53714;SDS011;39608;55.630;37.864;2023-09-18T19:43:35;12.57;;;5.68;;
53714;SDS011;39608;55.630;37.864;2023-09-18T19:48:37;11.20;;;6.18;;
53714;SDS011;39608;55.630;37.864;2023-09-18T19:53:41;9.80;;;6.47;;
53714;SDS011;39608;55.630;37.864;2023-09-18T19:58:43;8.95;;;5.80;;
53714;SDS011;39608;55.630;37.864;2023-09-18T20:03:46;19.08;;;6.10;;
53714;SDS011;39608;55.630;37.864;2023-09-18T20:08:49;11.88;;;6.22;;
53714;SDS011;39608;55.630;37.864;2023-09-18T20:13:51;15.27;;;6.68;;
53714;SDS011;39608;55.630;37.864;2023-09-18T20:18:53;10.40;;;6.60;;
53714;SDS011;39608;55.630;37.864;2023-09-18T20:23:59;13.35;;;8.02;;
53714;SDS011;39608;55.630;37.864;2023-09-18T20:29:01;14.35;;;8.20;;
53714;SDS011;39608;55.630;37.864;2023-09-18T20:34:03;13.95;;;7.53;;
53714;SDS011;39608;55.630;37.864;2023-09-18T20:39:07;15.25;;;8.45;;
53714;SDS011;39608;55.630;37.864;2023-09-18T20:44:09;19.17;;;8.73;;
53714;SDS011;39608;55.630;37.864;2023-09-18T20:49:13;26.35;;;8.65;;
53714;SDS011;39608;55.630;37.864;2023-09-18T20:54:16;16.88;;;8.65;;
53714;SDS011;39608;55.630;37.864;2023-09-18T20:59:18;20.42;;;9.70;;
53714;SDS011;39608;55.630;37.864;2023-09-18T21:04:22;26.65;;;8.70;;
53714;SDS011;39608;55.630;37.864;2023-09-18T21:09:26;28.25;;;12.82;;
53714;SDS011;39608;55.630;37.864;2023-09-18T21:14:28;25.23;;;13.07;;
53714;SDS011;39608;55.630;37.864;2023-09-18T21:19:30;27.33;;;14.70;;
53714;SDS011;39608;55.630;37.864;2023-09-18T21:24:37;39.25;;;16.15;;
53714;SDS011;39608;55.630;37.864;2023-09-18T21:29:44;27.27;;;14.43;;
53714;SDS011;39608;55.630;37.864;2023-09-18T21:34:46;27.25;;;13.93;;
53714;SDS011;39608;55.630;37.864;2023-09-18T21:39:50;29.58;;;14.07;;
53714;SDS011;39608;55.630;37.864;2023-09-18T21:44:53;22.55;;;13.63;;
53714;SDS011;39608;55.630;37.864;2023-09-18T21:49:55;23.05;;;12.85;;
53714;SDS011;39608;55.630;37.864;2023-09-18T21:54:59;26.17;;;13.45;;
53714;SDS011;39608;55.630;37.864;2023-09-18T22:00:01;18.85;;;11.35;;
53714;SDS011;39608;55.630;37.864;2023-09-18T22:05:28;24.33;;;12.67;;
53714;SDS011;39608;55.630;37.864;2023-09-18T22:10:31;26.80;;;11.23;;
53714;SDS011;39608;55.630;37.864;2023-09-18T22:15:34;25.00;;;12.02;;
53714;SDS011;39608;55.630;37.864;2023-09-18T22:20:36;15.25;;;8.18;;
53714;SDS011;39608;55.630;37.864;2023-09-18T22:25:39;15.20;;;9.88;;
53714;SDS011;39608;55.630;37.864;2023-09-18T22:30:41;19.20;;;8.65;;
53714;SDS011;39608;55.630;37.864;2023-09-18T22:35:45;15.82;;;9.10;;
53714;SDS011;39608;55.630;37.864;2023-09-18T22:57:11;12.77;;;7.85;;
53714;SDS011;39608;55.630;37.864;2023-09-18T23:02:14;16.95;;;8.25;;
53714;SDS011;39608;55.630;37.864;2023-09-18T23:07:17;19.08;;;8.95;;
53714;SDS011;39608;55.630;37.864;2023-09-18T23:12:20;18.23;;;8.63;;
53714;SDS011;39608;55.630;37.864;2023-09-18T23:17:23;16.15;;;8.82;;
53714;SDS011;39608;55.630;37.864;2023-09-18T23:22:26;17.38;;;8.00;;
53714;SDS011;39608;55.630;37.864;2023-09-18T23:27:30;22.65;;;11.30;;
53714;SDS011;39608;55.630;37.864;2023-09-18T23:32:32;24.40;;;12.32;;
53714;SDS011;39608;55.630;37.864;2023-09-18T23:37:34;21.05;;;11.88;;
53714;SDS011;39608;55.630;37.864;2023-09-18T23:42:38;22.60;;;10.82;;
53714;SDS011;39608;55.630;37.864;2023-09-18T23:47:42;19.67;;;10.52;;
53714;SDS011;39608;55.630;37.864;2023-09-18T23:52:47;21.30;;;10.27;;
53714;SDS011;39608;55.630;37.864;2023-09-18T23:57:53;18.45;;;10.98;;
